sensor_id;sensor_type;location;lat;lon;timestamp;temperature;humidity
46231;DHT22;31949;51.404;-0.038;2022-12-20T00:01:32;13.20;99.90
46231;DHT22;31949;51.404;-0.038;2022-12-20T00:04:02;13.10;99.90
46231;DHT22;31949;51.404;-0.038;2022-12-20T00:06:33;13.20;99.90
46231;DHT22;31949;51.404;-0.038;2022-12-20T00:09:02;13.20;99.90
46231;DHT22;31949;51.404;-0.038;2022-12-20T00:11:30;13.30;99.90
46231;DHT22;31949;51.404;-0.038;2022-12-20T00:13:57;13.30;99.90
46231;DHT22;31949;51.404;-0.038;2022-12-20T00:16:26;13.20;99.90
46231;DHT22;31949;51.404;-0.038;2022-12-20T00:18:59;13.20;99.90
46231;DHT22;31949;51.404;-0.038;2022-12-20T00:21:28;13.20;99.90
46231;DHT22;31949;51.404;-0.038;2022-12-20T00:23:55;13.20;99.90
46231;DHT22;31949;51.404;-0.038;2022-12-20T00:26:28;13.20;99.90
46231;DHT22;31949;51.404;-0.038;2022-12-20T00:28:55;13.20;99.90
46231;DHT22;31949;51.404;-0.038;2022-12-20T00:31:24;13.10;99.90
46231;DHT22;31949;51.404;-0.038;2022-12-20T00:33:54;13.10;99.90
46231;DHT22;31949;51.404;-0.038;2022-12-20T00:36:23;13.10;99.90
46231;DHT22;31949;51.404;-0.038;2022-12-20T00:38:52;13.10;99.90
46231;DHT22;31949;51.404;-0.038;2022-12-20T00:41:26;13.10;99.90
46231;DHT22;31949;51.404;-0.038;2022-12-20T00:43:54;13.20;99.90
46231;DHT22;31949;51.404;-0.038;2022-12-20T00:46:22;13.10;99.90
46231;DHT22;31949;51.404;-0.038;2022-12-20T00:48:52;13.10;99.90
46231;DHT22;31949;51.404;-0.038;2022-12-20T00:51:25;13.10;99.90
46231;DHT22;31949;51.404;-0.038;2022-12-20T00:53:53;13.10;99.90
46231;DHT22;31949;51.404;-0.038;2022-12-20T00:56:21;13.10;99.90
46231;DHT22;31949;51.404;-0.038;2022-12-20T00:58:56;13.10;99.90
46231;DHT22;31949;51.404;-0.038;2022-12-20T01:01:26;13.20;99.90
46231;DHT22;31949;51.404;-0.038;2022-12-20T01:03:55;13.20;99.90
46231;DHT22;31949;51.404;-0.038;2022-12-20T01:06:24;13.20;99.90
46231;DHT22;31949;51.404;-0.038;2022-12-20T01:08:53;13.20;99.90
46231;DHT22;31949;51.404;-0.038;2022-12-20T01:11:23;13.20;99.90
46231;DHT22;31949;51.404;-0.038;2022-12-20T01:13:53;13.30;99.90
46231;DHT22;31949;51.404;-0.038;2022-12-20T01:16:34;13.20;99.90
46231;DHT22;31949;51.404;-0.038;2022-12-20T01:19:03;13.20;99.90
46231;DHT22;31949;51.404;-0.038;2022-12-20T01:21:30;13.20;99.90
46231;DHT22;31949;51.404;-0.038;2022-12-20T01:23:58;13.20;99.90
46231;DHT22;31949;51.404;-0.038;2022-12-20T01:26:26;13.20;99.90
46231;DHT22;31949;51.404;-0.038;2022-12-20T01:28:57;13.20;99.90
46231;DHT22;31949;51.404;-0.038;2022-12-20T01:31:25;13.20;99.90
46231;DHT22;31949;51.404;-0.038;2022-12-20T01:33:53;13.20;99.90
46231;DHT22;31949;51.404;-0.038;2022-12-20T01:36:26;13.20;99.90
46231;DHT22;31949;51.404;-0.038;2022-12-20T01:38:57;13.20;99.90
46231;DHT22;31949;51.404;-0.038;2022-12-20T01:41:25;13.20;99.90
46231;DHT22;31949;51.404;-0.038;2022-12-20T01:43:56;13.10;99.90
46231;DHT22;31949;51.404;-0.038;2022-12-20T01:46:29;13.20;99.90
46231;DHT22;31949;51.404;-0.038;2022-12-20T01:51:31;13.20;99.90
46231;DHT22;31949;51.404;-0.038;2022-12-20T01:56:43;13.20;99.90
46231;DHT22;31949;51.404;-0.038;2022-12-20T01:59:13;13.20;99.90
46231;DHT22;31949;51.404;-0.038;2022-12-20T02:01:42;13.20;99.90
46231;DHT22;31949;51.404;-0.038;2022-12-20T02:04:11;13.30;99.90
46231;DHT22;31949;51.404;-0.038;2022-12-20T02:06:38;13.30;99.90
46231;DHT22;31949;51.404;-0.038;2022-12-20T02:09:06;13.30;99.90
46231;DHT22;31949;51.404;-0.038;2022-12-20T02:12:07;13.30;99.90
46231;DHT22;31949;51.404;-0.038;2022-12-20T02:15:07;13.30;99.90
46231;DHT22;31949;51.404;-0.038;2022-12-20T02:21:03;13.20;99.90
46231;DHT22;31949;51.404;-0.038;2022-12-20T02:24:18;13.20;99.90
46231;DHT22;31949;51.404;-0.038;2022-12-20T02:29:32;13.30;99.90
46231;DHT22;31949;51.404;-0.038;2022-12-20T02:32:15;13.30;99.90
46231;DHT22;31949;51.404;-0.038;2022-12-20T02:34:43;13.30;99.90
46231;DHT22;31949;51.404;-0.038;2022-12-20T02:37:10;13.30;99.90
46231;DHT22;31949;51.404;-0.038;2022-12-20T02:39:39;13.30;99.90
46231;DHT22;31949;51.404;-0.038;2022-12-20T02:42:13;13.30;99.90
46231;DHT22;31949;51.404;-0.038;2022-12-20T02:45:02;13.30;99.90
46231;DHT22;31949;51.404;-0.038;2022-12-20T02:47:48;13.30;99.90
46231;DHT22;31949;51.404;-0.038;2022-12-20T02:50:31;13.20;99.90
46231;DHT22;31949;51.404;-0.038;2022-12-20T02:53:00;13.20;99.90
46231;DHT22;31949;51.404;-0.038;2022-12-20T02:55:45;13.20;99.90
46231;DHT22;31949;51.404;-0.038;2022-12-20T02:58:32;13.20;99.90
46231;DHT22;31949;51.404;-0.038;2022-12-20T03:01:07;13.10;99.90
46231;DHT22;31949;51.404;-0.038;2022-12-20T03:03:37;13.20;99.90
46231;DHT22;31949;51.404;-0.038;2022-12-20T03:06:05;13.20;99.90
46231;DHT22;31949;51.404;-0.038;2022-12-20T03:08:32;13.20;99.90
46231;DHT22;31949;51.404;-0.038;2022-12-20T03:10:59;13.10;99.90
46231;DHT22;31949;51.404;-0.038;2022-12-20T03:13:29;13.20;99.90
46231;DHT22;31949;51.404;-0.038;2022-12-20T03:16:01;13.10;99.90
46231;DHT22;31949;51.404;-0.038;2022-12-20T03:18:28;13.10;99.90
46231;DHT22;31949;51.404;-0.038;2022-12-20T03:20:56;13.10;99.90
46231;DHT22;31949;51.404;-0.038;2022-12-20T03:23:23;13.10;99.90
46231;DHT22;31949;51.404;-0.038;2022-12-20T03:25:50;13.10;99.90
46231;DHT22;31949;51.404;-0.038;2022-12-20T03:28:28;13.10;99.90
46231;DHT22;31949;51.404;-0.038;2022-12-20T03:30:56;13.10;99.90
46231;DHT22;31949;51.404;-0.038;2022-12-20T03:33:24;13.10;99.90
46231;DHT22;31949;51.404;-0.038;2022-12-20T03:35:57;13.10;99.90
46231;DHT22;31949;51.404;-0.038;2022-12-20T03:38:24;13.00;99.90
46231;DHT22;31949;51.404;-0.038;2022-12-20T03:40:51;13.10;99.90
46231;DHT22;31949;51.404;-0.038;2022-12-20T03:43:20;13.10;99.90
46231;DHT22;31949;51.404;-0.038;2022-12-20T03:45:47;13.10;99.90
46231;DHT22;31949;51.404;-0.038;2022-12-20T03:48:15;13.20;99.90
46231;DHT22;31949;51.404;-0.038;2022-12-20T03:50:42;13.10;99.90
46231;DHT22;31949;51.404;-0.038;2022-12-20T03:53:10;13.10;99.90
46231;DHT22;31949;51.404;-0.038;2022-12-20T03:55:37;13.20;99.90
46231;DHT22;31949;51.404;-0.038;2022-12-20T03:58:04;13.10;99.90
46231;DHT22;31949;51.404;-0.038;2022-12-20T04:00:35;13.20;99.90
46231;DHT22;31949;51.404;-0.038;2022-12-20T04:03:28;13.20;99.90
46231;DHT22;31949;51.404;-0.038;2022-12-20T04:05:55;13.20;99.90
46231;DHT22;31949;51.404;-0.038;2022-12-20T04:08:23;13.20;99.90
46231;DHT22;31949;51.404;-0.038;2022-12-20T04:10:51;13.10;99.90
46231;DHT22;31949;51.404;-0.038;2022-12-20T04:13:39;13.10;99.90
46231;DHT22;31949;51.404;-0.038;2022-12-20T04:16:07;13.10;99.90
46231;DHT22;31949;51.404;-0.038;2022-12-20T04:18:35;13.10;99.90
46231;DHT22;31949;51.404;-0.038;2022-12-20T04:21:03;13.10;99.90
46231;DHT22;31949;51.404;-0.038;2022-12-20T04:23:35;13.10;99.90
46231;DHT22;31949;51.404;-0.038;2022-12-20T04:26:04;13.10;99.90
46231;DHT22;31949;51.404;-0.038;2022-12-20T04:28:33;13.00;99.90
46231;DHT22;31949;51.404;-0.038;2022-12-20T04:31:01;13.00;99.90
46231;DHT22;31949;51.404;-0.038;2022-12-20T04:33:31;13.00;99.90
46231;DHT22;31949;51.404;-0.038;2022-12-20T04:35:58;13.00;99.90
46231;DHT22;31949;51.404;-0.038;2022-12-20T04:38:27;12.90;99.90
46231;DHT22;31949;51.404;-0.038;2022-12-20T04:40:55;12.90;99.90
46231;DHT22;31949;51.404;-0.038;2022-12-20T04:43:24;12.90;99.90
46231;DHT22;31949;51.404;-0.038;2022-12-20T04:45:55;12.90;99.90
46231;DHT22;31949;51.404;-0.038;2022-12-20T04:48:27;12.90;99.90
46231;DHT22;31949;51.404;-0.038;2022-12-20T04:51:15;13.00;99.90
46231;DHT22;31949;51.404;-0.038;2022-12-20T04:53:43;12.90;99.90
46231;DHT22;31949;51.404;-0.038;2022-12-20T04:56:34;13.00;99.90
46231;DHT22;31949;51.404;-0.038;2022-12-20T04:59:07;12.90;99.90
46231;DHT22;31949;51.404;-0.038;2022-12-20T05:01:35;13.00;99.90
46231;DHT22;31949;51.404;-0.038;2022-12-20T05:04:03;13.00;99.90
46231;DHT22;31949;51.404;-0.038;2022-12-20T05:06:34;13.00;99.90
46231;DHT22;31949;51.404;-0.038;2022-12-20T05:09:01;13.00;99.90
46231;DHT22;31949;51.404;-0.038;2022-12-20T05:11:30;13.00;99.90
46231;DHT22;31949;51.404;-0.038;2022-12-20T05:13:57;13.00;99.90
46231;DHT22;31949;51.404;-0.038;2022-12-20T05:16:24;13.00;99.90
46231;DHT22;31949;51.404;-0.038;2022-12-20T05:18:52;13.00;99.90
46231;DHT22;31949;51.404;-0.038;2022-12-20T05:21:20;13.10;99.90
46231;DHT22;31949;51.404;-0.038;2022-12-20T05:24:07;13.10;99.90
46231;DHT22;31949;51.404;-0.038;2022-12-20T05:27:03;13.00;99.90
46231;DHT22;31949;51.404;-0.038;2022-12-20T05:29:30;13.00;99.90
46231;DHT22;31949;51.404;-0.038;2022-12-20T05:31:58;13.10;99.90
46231;DHT22;31949;51.404;-0.038;2022-12-20T05:34:26;13.00;99.90
46231;DHT22;31949;51.404;-0.038;2022-12-20T05:36:54;13.00;99.90
46231;DHT22;31949;51.404;-0.038;2022-12-20T05:39:24;13.00;99.90
46231;DHT22;31949;51.404;-0.038;2022-12-20T05:41:55;12.90;99.90
46231;DHT22;31949;51.404;-0.038;2022-12-20T05:44:24;12.90;99.90
46231;DHT22;31949;51.404;-0.038;2022-12-20T05:46:55;12.90;99.90
46231;DHT22;31949;51.404;-0.038;2022-12-20T05:49:27;13.00;99.90
46231;DHT22;31949;51.404;-0.038;2022-12-20T05:51:55;13.00;99.90
46231;DHT22;31949;51.404;-0.038;2022-12-20T05:54:26;13.00;99.90
46231;DHT22;31949;51.404;-0.038;2022-12-20T05:56:58;12.90;99.90
46231;DHT22;31949;51.404;-0.038;2022-12-20T05:59:33;12.90;99.90
46231;DHT22;31949;51.404;-0.038;2022-12-20T06:02:03;12.90;99.90
46231;DHT22;31949;51.404;-0.038;2022-12-20T06:04:31;12.90;99.90
46231;DHT22;31949;51.404;-0.038;2022-12-20T06:07:03;12.90;99.90
46231;DHT22;31949;51.404;-0.038;2022-12-20T06:09:32;12.90;99.90
46231;DHT22;31949;51.404;-0.038;2022-12-20T06:12:04;12.80;99.90
46231;DHT22;31949;51.404;-0.038;2022-12-20T06:14:33;12.90;99.90
46231;DHT22;31949;51.404;-0.038;2022-12-20T06:17:01;12.90;99.90
46231;DHT22;31949;51.404;-0.038;2022-12-20T06:19:29;12.90;99.90
46231;DHT22;31949;51.404;-0.038;2022-12-20T06:21:57;12.90;99.90
46231;DHT22;31949;51.404;-0.038;2022-12-20T06:24:32;12.90;99.90
46231;DHT22;31949;51.404;-0.038;2022-12-20T06:27:00;13.00;99.90
46231;DHT22;31949;51.404;-0.038;2022-12-20T06:29:29;13.00;99.90
46231;DHT22;31949;51.404;-0.038;2022-12-20T06:32:07;13.00;99.90
46231;DHT22;31949;51.404;-0.038;2022-12-20T06:34:36;13.00;99.90
46231;DHT22;31949;51.404;-0.038;2022-12-20T06:37:06;13.10;99.90
46231;DHT22;31949;51.404;-0.038;2022-12-20T06:39:34;13.00;99.90
46231;DHT22;31949;51.404;-0.038;2022-12-20T06:42:03;13.00;99.90
46231;DHT22;31949;51.404;-0.038;2022-12-20T06:44:32;13.00;99.90
46231;DHT22;31949;51.404;-0.038;2022-12-20T06:46:59;13.00;99.90
46231;DHT22;31949;51.404;-0.038;2022-12-20T06:49:27;13.00;99.90
46231;DHT22;31949;51.404;-0.038;2022-12-20T06:51:55;13.00;99.90
46231;DHT22;31949;51.404;-0.038;2022-12-20T06:54:30;13.00;99.90
46231;DHT22;31949;51.404;-0.038;2022-12-20T06:56:58;13.00;99.90
46231;DHT22;31949;51.404;-0.038;2022-12-20T06:59:25;12.90;99.90
46231;DHT22;31949;51.404;-0.038;2022-12-20T07:01:54;12.90;99.90
46231;DHT22;31949;51.404;-0.038;2022-12-20T07:04:26;13.00;99.90
46231;DHT22;31949;51.404;-0.038;2022-12-20T07:06:53;13.00;99.90
46231;DHT22;31949;51.404;-0.038;2022-12-20T07:09:23;12.90;99.90
46231;DHT22;31949;51.404;-0.038;2022-12-20T07:11:53;12.70;99.90
46231;DHT22;31949;51.404;-0.038;2022-12-20T07:14:20;12.60;99.90
46231;DHT22;31949;51.404;-0.038;2022-12-20T07:16:48;12.40;99.90
46231;DHT22;31949;51.404;-0.038;2022-12-20T07:19:16;12.40;99.90
46231;DHT22;31949;51.404;-0.038;2022-12-20T07:21:43;12.40;99.90
46231;DHT22;31949;51.404;-0.038;2022-12-20T07:24:10;12.20;99.90
46231;DHT22;31949;51.404;-0.038;2022-12-20T07:26:37;12.20;99.90
46231;DHT22;31949;51.404;-0.038;2022-12-20T07:29:04;12.20;99.90
46231;DHT22;31949;51.404;-0.038;2022-12-20T07:31:39;12.10;99.90
46231;DHT22;31949;51.404;-0.038;2022-12-20T07:34:06;12.00;99.90
46231;DHT22;31949;51.404;-0.038;2022-12-20T07:36:33;12.10;99.90
46231;DHT22;31949;51.404;-0.038;2022-12-20T07:39:01;12.10;99.90
46231;DHT22;31949;51.404;-0.038;2022-12-20T07:41:28;12.00;99.90
46231;DHT22;31949;51.404;-0.038;2022-12-20T07:43:55;11.90;99.90
46231;DHT22;31949;51.404;-0.038;2022-12-20T07:46:25;11.90;99.90
46231;DHT22;31949;51.404;-0.038;2022-12-20T07:48:54;11.80;99.90
46231;DHT22;31949;51.404;-0.038;2022-12-20T07:51:28;11.80;99.90
46231;DHT22;31949;51.404;-0.038;2022-12-20T07:54:07;11.80;99.90
46231;DHT22;31949;51.404;-0.038;2022-12-20T07:56:38;11.70;99.90
46231;DHT22;31949;51.404;-0.038;2022-12-20T07:59:10;11.70;99.90
46231;DHT22;31949;51.404;-0.038;2022-12-20T08:01:39;11.70;99.90
46231;DHT22;31949;51.404;-0.038;2022-12-20T08:04:13;11.70;99.90
46231;DHT22;31949;51.404;-0.038;2022-12-20T08:06:41;11.60;99.90
46231;DHT22;31949;51.404;-0.038;2022-12-20T08:09:10;11.50;99.90
46231;DHT22;31949;51.404;-0.038;2022-12-20T08:11:42;11.50;99.90
46231;DHT22;31949;51.404;-0.038;2022-12-20T08:14:11;11.60;99.90
46231;DHT22;31949;51.404;-0.038;2022-12-20T08:16:39;11.60;99.90
46231;DHT22;31949;51.404;-0.038;2022-12-20T08:19:06;11.60;99.90
46231;DHT22;31949;51.404;-0.038;2022-12-20T08:21:33;11.50;99.90
46231;DHT22;31949;51.404;-0.038;2022-12-20T08:24:00;11.40;99.90
46231;DHT22;31949;51.404;-0.038;2022-12-20T08:26:28;11.40;99.90
46231;DHT22;31949;51.404;-0.038;2022-12-20T08:28:55;11.40;99.90
46231;DHT22;31949;51.404;-0.038;2022-12-20T08:31:22;11.40;99.90
46231;DHT22;31949;51.404;-0.038;2022-12-20T08:33:53;11.30;99.90
46231;DHT22;31949;51.404;-0.038;2022-12-20T08:36:20;11.30;99.90
46231;DHT22;31949;51.404;-0.038;2022-12-20T08:38:47;11.30;99.90
46231;DHT22;31949;51.404;-0.038;2022-12-20T08:41:15;11.30;99.90
46231;DHT22;31949;51.404;-0.038;2022-12-20T08:43:42;11.30;99.90
46231;DHT22;31949;51.404;-0.038;2022-12-20T08:46:10;11.20;99.90
46231;DHT22;31949;51.404;-0.038;2022-12-20T08:48:41;11.20;99.90
46231;DHT22;31949;51.404;-0.038;2022-12-20T08:51:09;11.10;99.90
46231;DHT22;31949;51.404;-0.038;2022-12-20T08:53:38;11.10;99.90
46231;DHT22;31949;51.404;-0.038;2022-12-20T08:56:07;11.00;99.90
46231;DHT22;31949;51.404;-0.038;2022-12-20T08:58:35;11.00;99.90
46231;DHT22;31949;51.404;-0.038;2022-12-20T09:01:05;11.00;99.90
46231;DHT22;31949;51.404;-0.038;2022-12-20T09:03:34;10.90;99.90
46231;DHT22;31949;51.404;-0.038;2022-12-20T09:06:05;10.80;99.90
46231;DHT22;31949;51.404;-0.038;2022-12-20T09:08:34;10.90;99.90
46231;DHT22;31949;51.404;-0.038;2022-12-20T09:11:11;10.80;99.90
46231;DHT22;31949;51.404;-0.038;2022-12-20T09:13:43;10.80;99.90
46231;DHT22;31949;51.404;-0.038;2022-12-20T09:16:13;10.80;99.90
46231;DHT22;31949;51.404;-0.038;2022-12-20T09:18:41;10.70;99.90
46231;DHT22;31949;51.404;-0.038;2022-12-20T09:21:12;10.70;99.90
46231;DHT22;31949;51.404;-0.038;2022-12-20T09:23:39;10.70;99.90
46231;DHT22;31949;51.404;-0.038;2022-12-20T09:26:13;10.60;99.90
46231;DHT22;31949;51.404;-0.038;2022-12-20T09:28:42;10.60;99.90
46231;DHT22;31949;51.404;-0.038;2022-12-20T09:31:12;10.70;99.90
46231;DHT22;31949;51.404;-0.038;2022-12-20T09:33:41;10.60;99.90
46231;DHT22;31949;51.404;-0.038;2022-12-20T09:36:13;10.60;99.90
46231;DHT22;31949;51.404;-0.038;2022-12-20T09:38:40;10.70;99.90
46231;DHT22;31949;51.404;-0.038;2022-12-20T09:46:55;10.60;99.90
46231;DHT22;31949;51.404;-0.038;2022-12-20T09:49:33;10.60;99.90
46231;DHT22;31949;51.404;-0.038;2022-12-20T10:00:17;10.50;99.90
46231;DHT22;31949;51.404;-0.038;2022-12-20T10:02:46;10.50;99.90
46231;DHT22;31949;51.404;-0.038;2022-12-20T10:06:08;10.40;99.90
46231;DHT22;31949;51.404;-0.038;2022-12-20T10:08:54;10.50;99.90
46231;DHT22;31949;51.404;-0.038;2022-12-20T10:14:36;10.50;99.90
46231;DHT22;31949;51.404;-0.038;2022-12-20T10:23:12;10.50;99.90
46231;DHT22;31949;51.404;-0.038;2022-12-20T10:25:42;10.50;99.90
46231;DHT22;31949;51.404;-0.038;2022-12-20T10:28:14;10.50;99.90
46231;DHT22;31949;51.404;-0.038;2022-12-20T10:30:43;10.50;99.90
46231;DHT22;31949;51.404;-0.038;2022-12-20T10:33:18;10.50;99.90
46231;DHT22;31949;51.404;-0.038;2022-12-20T10:35:46;10.60;99.90
46231;DHT22;31949;51.404;-0.038;2022-12-20T10:38:14;10.60;99.90
46231;DHT22;31949;51.404;-0.038;2022-12-20T10:44:15;10.60;99.90
46231;DHT22;31949;51.404;-0.038;2022-12-20T10:46:51;10.60;99.90
46231;DHT22;31949;51.404;-0.038;2022-12-20T10:49:33;10.70;99.90
46231;DHT22;31949;51.404;-0.038;2022-12-20T10:52:11;10.60;99.90
46231;DHT22;31949;51.404;-0.038;2022-12-20T10:54:41;10.60;99.90
46231;DHT22;31949;51.404;-0.038;2022-12-20T10:57:25;10.60;99.90
46231;DHT22;31949;51.404;-0.038;2022-12-20T10:59:57;10.60;99.90
46231;DHT22;31949;51.404;-0.038;2022-12-20T11:02:37;10.70;99.90
46231;DHT22;31949;51.404;-0.038;2022-12-20T11:07:57;10.70;99.90
46231;DHT22;31949;51.404;-0.038;2022-12-20T11:10:45;10.70;99.90
46231;DHT22;31949;51.404;-0.038;2022-12-20T11:13:24;10.70;99.90
46231;DHT22;31949;51.404;-0.038;2022-12-20T11:15:55;10.70;99.90
46231;DHT22;31949;51.404;-0.038;2022-12-20T11:21:06;10.70;99.90
46231;DHT22;31949;51.404;-0.038;2022-12-20T11:23:57;10.70;99.90
46231;DHT22;31949;51.404;-0.038;2022-12-20T11:26:59;10.70;99.90
46231;DHT22;31949;51.404;-0.038;2022-12-20T11:29:48;10.80;99.90
46231;DHT22;31949;51.404;-0.038;2022-12-20T11:35:14;10.90;99.90
46231;DHT22;31949;51.404;-0.038;2022-12-20T11:40:43;10.90;99.90
46231;DHT22;31949;51.404;-0.038;2022-12-20T11:46:19;11.00;99.90
46231;DHT22;31949;51.404;-0.038;2022-12-20T11:55:38;10.90;99.90
46231;DHT22;31949;51.404;-0.038;2022-12-20T11:57:58;10.90;99.90
46231;DHT22;31949;51.404;-0.038;2022-12-20T12:00:56;11.10;99.90
46231;DHT22;31949;51.404;-0.038;2022-12-20T12:03:32;11.00;99.90
46231;DHT22;31949;51.404;-0.038;2022-12-20T12:06:23;11.10;99.90
46231;DHT22;31949;51.404;-0.038;2022-12-20T12:09:14;11.10;99.90
46231;DHT22;31949;51.404;-0.038;2022-12-20T12:12:01;11.10;99.90
46231;DHT22;31949;51.404;-0.038;2022-12-20T12:17:58;11.10;99.90
46231;DHT22;31949;51.404;-0.038;2022-12-20T12:26:31;11.10;99.90
46231;DHT22;31949;51.404;-0.038;2022-12-20T12:42:07;11.10;99.90
46231;DHT22;31949;51.404;-0.038;2022-12-20T12:45:13;11.10;99.90
46231;DHT22;31949;51.404;-0.038;2022-12-20T12:50:41;11.10;99.90
46231;DHT22;31949;51.404;-0.038;2022-12-20T12:55:44;11.20;99.90
46231;DHT22;31949;51.404;-0.038;2022-12-20T13:00:54;11.20;99.90
46231;DHT22;31949;51.404;-0.038;2022-12-20T13:16:43;11.30;99.90
46231;DHT22;31949;51.404;-0.038;2022-12-20T13:19:34;11.20;99.90
46231;DHT22;31949;51.404;-0.038;2022-12-20T13:40:43;11.20;99.90
46231;DHT22;31949;51.404;-0.038;2022-12-20T13:45:59;11.20;99.90
46231;DHT22;31949;51.404;-0.038;2022-12-20T13:48:41;11.20;99.90
46231;DHT22;31949;51.404;-0.038;2022-12-20T13:51:21;11.30;99.90
46231;DHT22;31949;51.404;-0.038;2022-12-20T13:54:16;11.30;99.90
46231;DHT22;31949;51.404;-0.038;2022-12-20T13:56:52;11.30;99.90
46231;DHT22;31949;51.404;-0.038;2022-12-20T13:59:30;11.30;99.90
46231;DHT22;31949;51.404;-0.038;2022-12-20T14:02:00;11.30;99.90
46231;DHT22;31949;51.404;-0.038;2022-12-20T14:04:42;11.40;99.90
46231;DHT22;31949;51.404;-0.038;2022-12-20T14:07:13;11.40;99.90
46231;DHT22;31949;51.404;-0.038;2022-12-20T14:09:45;11.40;99.90
46231;DHT22;31949;51.404;-0.038;2022-12-20T14:12:14;11.40;99.90
46231;DHT22;31949;51.404;-0.038;2022-12-20T14:14:52;11.40;99.90
46231;DHT22;31949;51.404;-0.038;2022-12-20T14:17:31;11.30;99.90
46231;DHT22;31949;51.404;-0.038;2022-12-20T14:22:49;11.40;99.90
46231;DHT22;31949;51.404;-0.038;2022-12-20T14:25:31;11.30;99.90
46231;DHT22;31949;51.404;-0.038;2022-12-20T14:27:59;11.30;99.90
46231;DHT22;31949;51.404;-0.038;2022-12-20T14:30:41;11.30;99.90
46231;DHT22;31949;51.404;-0.038;2022-12-20T14:33:29;11.20;99.90
46231;DHT22;31949;51.404;-0.038;2022-12-20T14:35:57;11.30;99.90
46231;DHT22;31949;51.404;-0.038;2022-12-20T14:38:33;11.20;99.90
46231;DHT22;31949;51.404;-0.038;2022-12-20T14:41:00;11.20;99.90
46231;DHT22;31949;51.404;-0.038;2022-12-20T14:43:32;11.20;99.90
46231;DHT22;31949;51.404;-0.038;2022-12-20T14:46:19;11.20;99.90
46231;DHT22;31949;51.404;-0.038;2022-12-20T14:48:47;11.10;99.90
46231;DHT22;31949;51.404;-0.038;2022-12-20T14:51:20;11.10;99.90
46231;DHT22;31949;51.404;-0.038;2022-12-20T14:53:49;11.00;99.90
46231;DHT22;31949;51.404;-0.038;2022-12-20T14:56:19;11.00;99.90
46231;DHT22;31949;51.404;-0.038;2022-12-20T14:59:26;10.90;99.90
46231;DHT22;31949;51.404;-0.038;2022-12-20T15:01:54;10.90;99.90
46231;DHT22;31949;51.404;-0.038;2022-12-20T15:04:31;10.70;99.90
46231;DHT22;31949;51.404;-0.038;2022-12-20T15:07:00;10.60;99.90
46231;DHT22;31949;51.404;-0.038;2022-12-20T15:09:28;10.60;99.90
46231;DHT22;31949;51.404;-0.038;2022-12-20T15:11:56;10.50;99.90
46231;DHT22;31949;51.404;-0.038;2022-12-20T15:14:35;10.50;99.90
46231;DHT22;31949;51.404;-0.038;2022-12-20T15:17:10;10.40;99.90
46231;DHT22;31949;51.404;-0.038;2022-12-20T15:19:38;10.40;99.90
46231;DHT22;31949;51.404;-0.038;2022-12-20T15:22:14;10.30;99.90
46231;DHT22;31949;51.404;-0.038;2022-12-20T15:24:42;10.30;99.90
46231;DHT22;31949;51.404;-0.038;2022-12-20T15:27:14;10.30;99.90
46231;DHT22;31949;51.404;-0.038;2022-12-20T15:29:42;10.20;99.90
46231;DHT22;31949;51.404;-0.038;2022-12-20T15:32:38;10.20;99.90
46231;DHT22;31949;51.404;-0.038;2022-12-20T15:35:21;10.20;99.90
46231;DHT22;31949;51.404;-0.038;2022-12-20T15:37:49;10.20;99.90
46231;DHT22;31949;51.404;-0.038;2022-12-20T15:40:16;10.10;99.90
46231;DHT22;31949;51.404;-0.038;2022-12-20T15:42:43;10.00;99.90
46231;DHT22;31949;51.404;-0.038;2022-12-20T15:45:12;10.00;99.90
46231;DHT22;31949;51.404;-0.038;2022-12-20T15:47:40;10.00;99.90
46231;DHT22;31949;51.404;-0.038;2022-12-20T15:50:10;9.90;99.90
46231;DHT22;31949;51.404;-0.038;2022-12-20T15:52:37;9.90;99.90
46231;DHT22;31949;51.404;-0.038;2022-12-20T15:55:07;9.80;99.90
46231;DHT22;31949;51.404;-0.038;2022-12-20T15:57:35;9.80;99.90
46231;DHT22;31949;51.404;-0.038;2022-12-20T16:00:03;9.80;99.90
46231;DHT22;31949;51.404;-0.038;2022-12-20T16:02:38;9.70;99.90
46231;DHT22;31949;51.404;-0.038;2022-12-20T16:05:10;9.70;99.90
46231;DHT22;31949;51.404;-0.038;2022-12-20T16:07:37;9.60;99.90
46231;DHT22;31949;51.404;-0.038;2022-12-20T16:10:05;9.60;99.90
46231;DHT22;31949;51.404;-0.038;2022-12-20T16:12:34;9.60;99.90
46231;DHT22;31949;51.404;-0.038;2022-12-20T16:15:02;9.50;99.90
46231;DHT22;31949;51.404;-0.038;2022-12-20T16:17:30;9.50;99.90
46231;DHT22;31949;51.404;-0.038;2022-12-20T16:19:57;9.50;99.90
46231;DHT22;31949;51.404;-0.038;2022-12-20T16:22:25;9.40;99.90
46231;DHT22;31949;51.404;-0.038;2022-12-20T16:24:52;9.40;99.90
46231;DHT22;31949;51.404;-0.038;2022-12-20T16:27:19;9.40;99.90
46231;DHT22;31949;51.404;-0.038;2022-12-20T16:29:47;9.30;99.90
46231;DHT22;31949;51.404;-0.038;2022-12-20T16:32:17;9.30;99.90
46231;DHT22;31949;51.404;-0.038;2022-12-20T16:34:45;9.30;99.90
46231;DHT22;31949;51.404;-0.038;2022-12-20T16:37:12;9.20;99.90
46231;DHT22;31949;51.404;-0.038;2022-12-20T16:39:40;9.20;99.90
46231;DHT22;31949;51.404;-0.038;2022-12-20T16:42:16;9.20;99.90
46231;DHT22;31949;51.404;-0.038;2022-12-20T16:44:43;9.10;99.90
46231;DHT22;31949;51.404;-0.038;2022-12-20T16:47:12;9.00;99.90
46231;DHT22;31949;51.404;-0.038;2022-12-20T16:49:41;9.00;99.90
46231;DHT22;31949;51.404;-0.038;2022-12-20T16:52:18;9.00;99.90
46231;DHT22;31949;51.404;-0.038;2022-12-20T16:54:46;9.00;99.90
46231;DHT22;31949;51.404;-0.038;2022-12-20T16:57:13;9.00;99.90
46231;DHT22;31949;51.404;-0.038;2022-12-20T16:59:41;9.00;99.90
46231;DHT22;31949;51.404;-0.038;2022-12-20T17:02:22;8.90;99.90
46231;DHT22;31949;51.404;-0.038;2022-12-20T17:04:52;8.90;99.90
46231;DHT22;31949;51.404;-0.038;2022-12-20T17:07:19;8.80;99.90
46231;DHT22;31949;51.404;-0.038;2022-12-20T17:09:47;8.80;99.90
46231;DHT22;31949;51.404;-0.038;2022-12-20T17:12:31;8.80;99.90
46231;DHT22;31949;51.404;-0.038;2022-12-20T17:14:59;8.80;99.90
46231;DHT22;31949;51.404;-0.038;2022-12-20T17:17:26;8.80;99.90
46231;DHT22;31949;51.404;-0.038;2022-12-20T17:19:53;8.70;99.90
46231;DHT22;31949;51.404;-0.038;2022-12-20T17:22:20;8.70;99.90
46231;DHT22;31949;51.404;-0.038;2022-12-20T17:25:05;8.70;99.90
46231;DHT22;31949;51.404;-0.038;2022-12-20T17:27:32;8.70;99.90
46231;DHT22;31949;51.404;-0.038;2022-12-20T17:29:59;8.60;99.90
46231;DHT22;31949;51.404;-0.038;2022-12-20T17:32:27;8.60;99.90
46231;DHT22;31949;51.404;-0.038;2022-12-20T17:34:55;8.60;99.90
46231;DHT22;31949;51.404;-0.038;2022-12-20T17:37:23;8.50;99.90
46231;DHT22;31949;51.404;-0.038;2022-12-20T17:39:51;8.50;99.90
46231;DHT22;31949;51.404;-0.038;2022-12-20T17:42:18;8.50;99.90
46231;DHT22;31949;51.404;-0.038;2022-12-20T17:44:45;8.40;99.90
46231;DHT22;31949;51.404;-0.038;2022-12-20T17:47:12;8.40;99.90
46231;DHT22;31949;51.404;-0.038;2022-12-20T17:49:40;8.40;99.90
46231;DHT22;31949;51.404;-0.038;2022-12-20T17:52:16;8.30;99.90
46231;DHT22;31949;51.404;-0.038;2022-12-20T17:54:43;8.30;99.90